createdAt,value
2024-03-03T00:04:57.776Z,77.14
2024-03-03T00:07:27.990Z,77.89
2024-03-03T00:09:56.343Z,76.34
2024-03-03T00:12:26.726Z,78.31
2024-03-03T00:14:56.045Z,78.14
2024-03-03T00:17:26.201Z,77.54
2024-03-03T00:19:59.996Z,76.59
2024-03-03T00:22:28.949Z,76.66
2024-03-03T00:24:59.011Z,77.81
2024-03-03T00:27:32.006Z,78.14
2024-03-03T00:30:00.369Z,76.95
2024-03-03T00:32:28.872Z,76.65
2024-03-03T00:34:58.964Z,77.71
2024-03-03T00:37:28.377Z,77.47
2024-03-03T00:39:57.346Z,77.07
2024-03-03T00:42:25.515Z,76.75
2024-03-03T00:44:56.573Z,76.78
2024-03-03T00:47:26.411Z,77.28
2024-03-03T00:49:55.056Z,77.86
2024-03-03T00:52:23.916Z,78.70
2024-03-03T00:54:52.749Z,77.74
2024-03-03T00:57:23.042Z,77.36
2024-03-03T00:59:51.856Z,78.26
2024-03-03T01:02:22.925Z,78.08
2024-03-03T01:04:51.505Z,78.40
2024-03-03T01:07:23.466Z,78.42
2024-03-03T01:09:55.183Z,80.25
2024-03-03T01:12:38.040Z,79.99
2024-03-03T01:15:09.784Z,80.33
2024-03-03T01:17:41.554Z,77.85
2024-03-03T01:20:10.781Z,79.16
2024-03-03T01:22:39.608Z,79.44
2024-03-03T01:25:09.588Z,78.77
2024-03-03T01:27:40.669Z,79.71
2024-03-03T01:30:10.581Z,80.64
2024-03-03T01:32:43.566Z,80.07
2024-03-03T01:35:13.064Z,78.83
2024-03-03T01:40:25.311Z,80.09
2024-03-03T01:42:57.249Z,80.02
2024-03-03T01:45:28.813Z,79.47
2024-03-03T01:48:00.984Z,79.36
2024-03-03T01:50:30.167Z,79.20
2024-03-03T01:52:58.713Z,78.55
2024-03-03T01:55:27.826Z,78.37
2024-03-03T01:58:04.493Z,78.01
2024-03-03T02:00:35.791Z,78.34
2024-03-03T02:03:07.717Z,77.14
2024-03-03T02:05:38.818Z,76.78
2024-03-03T02:08:08.024Z,77.22
2024-03-03T02:10:37.881Z,77.24
2024-03-03T02:13:07.017Z,77.05
2024-03-03T02:15:37.502Z,77.60
2024-03-03T02:18:08.496Z,76.92
2024-03-03T02:20:39.033Z,76.69
2024-03-03T02:23:13.460Z,76.99
2024-03-03T02:25:42.994Z,76.21
2024-03-03T02:28:12.584Z,78.04
2024-03-03T02:30:42.093Z,78.40
2024-03-03T02:33:12.664Z,79.07
2024-03-03T02:35:40.159Z,78.43
2024-03-03T02:38:10.121Z,78.55
2024-03-03T02:40:38.279Z,78.95
2024-03-03T02:43:09.205Z,79.13
2024-03-03T02:45:40.053Z,79.78
2024-03-03T02:48:09.400Z,79.61
2024-03-03T02:50:38.199Z,79.58
2024-03-03T02:53:10.751Z,78.88
2024-03-03T02:55:40.522Z,79.46
2024-03-03T02:58:10.828Z,79.71
2024-03-03T03:00:39.505Z,80.38
2024-03-03T03:03:08.495Z,80.03
2024-03-03T03:05:36.976Z,79.70
2024-03-03T03:08:05.259Z,80.40
2024-03-03T03:10:35.324Z,80.01
2024-03-03T03:13:05.563Z,81.21
2024-03-03T03:15:37.120Z,80.83
2024-03-03T03:18:06.142Z,80.52
2024-03-03T03:20:35.893Z,80.45
2024-03-03T03:23:04.610Z,80.67
2024-03-03T03:25:35.890Z,81.17
2024-03-03T03:28:04.761Z,80.83
2024-03-03T03:30:32.974Z,80.71
2024-03-03T03:33:01.923Z,80.38
2024-03-03T03:35:30.711Z,80.91
2024-03-03T03:37:59.656Z,80.71
2024-03-03T03:40:29.613Z,81.79
2024-03-03T03:43:05.846Z,81.23
2024-03-03T03:45:35.714Z,80.44
2024-03-03T03:48:05.864Z,80.67
2024-03-03T03:50:34.679Z,80.69
2024-03-03T03:53:04.668Z,80.18
2024-03-03T03:55:35.551Z,80.31
2024-03-03T03:58:05.903Z,80.43
2024-03-03T04:00:34.992Z,81.31
2024-03-03T04:03:07.241Z,80.95
2024-03-03T04:05:36.789Z,80.83
2024-03-03T04:08:06.635Z,81.40
2024-03-03T04:10:37.899Z,80.91
2024-03-03T04:13:09.633Z,81.12
2024-03-03T04:15:39.444Z,80.71
2024-03-03T04:18:15.535Z,80.85
2024-03-03T04:20:46.055Z,80.83
2024-03-03T04:23:15.776Z,80.97
2024-03-03T04:25:44.006Z,80.37
2024-03-03T04:28:14.887Z,80.77
2024-03-03T04:30:43.171Z,80.53
2024-03-03T04:33:14.279Z,80.70
2024-03-03T04:35:43.829Z,81.07
2024-03-03T04:38:12.177Z,80.58
2024-03-03T04:40:44.811Z,80.98
2024-03-03T04:43:20.333Z,81.55
2024-03-03T04:45:51.997Z,81.68
2024-03-03T04:48:22.048Z,81.39
2024-03-03T04:50:50.381Z,81.30
2024-03-03T04:53:20.569Z,81.53
2024-03-03T04:55:49.662Z,81.16
2024-03-03T04:58:20.906Z,80.70
2024-03-03T05:00:50.564Z,81.24
2024-03-03T05:03:20.133Z,80.51
2024-03-03T05:05:48.645Z,81.87
2024-03-03T05:08:16.905Z,82.02
2024-03-03T05:10:45.141Z,81.44
2024-03-03T05:13:15.112Z,81.16
2024-03-03T05:15:46.367Z,80.76
2024-03-03T05:18:15.245Z,79.99
2024-03-03T05:20:47.016Z,82.60
2024-03-03T05:23:16.467Z,81.58
2024-03-03T05:25:45.810Z,81.23
2024-03-03T05:28:15.170Z,81.17
2024-03-03T05:30:46.037Z,80.88
2024-03-03T05:33:17.969Z,81.18
2024-03-03T05:35:46.737Z,81.96
2024-03-03T05:38:17.974Z,82.23
2024-03-03T05:40:47.658Z,81.53
2024-03-03T05:43:17.278Z,81.17
2024-03-03T05:45:46.416Z,80.85
2024-03-03T05:48:18.818Z,80.35
2024-03-03T05:50:47.576Z,81.12
2024-03-03T05:53:17.991Z,81.50
2024-03-03T05:55:46.604Z,82.04
2024-03-03T05:58:15.291Z,81.94
2024-03-03T06:00:44.074Z,80.68
2024-03-03T06:03:16.598Z,80.55
2024-03-03T06:05:46.432Z,79.91
2024-03-03T06:08:17.648Z,80.09
2024-03-03T06:10:47.603Z,80.13
2024-03-03T06:13:17.655Z,80.77
2024-03-03T06:15:49.185Z,81.32
2024-03-03T06:18:20.871Z,81.10
2024-03-03T06:20:49.122Z,81.48
2024-03-03T06:23:18.711Z,81.32
2024-03-03T06:25:47.509Z,80.82
2024-03-03T06:28:16.021Z,81.85
2024-03-03T06:30:46.115Z,80.88
2024-03-03T06:33:19.829Z,81.36
2024-03-03T06:35:51.224Z,80.77
2024-03-03T06:38:20.367Z,80.10
2024-03-03T06:40:50.418Z,80.30
2024-03-03T06:43:21.502Z,79.96
2024-03-03T06:45:51.247Z,79.54
2024-03-03T06:48:21.644Z,78.68
2024-03-03T06:50:51.867Z,78.84
2024-03-03T06:53:20.426Z,78.46
2024-03-03T06:55:50.492Z,77.75
2024-03-03T06:58:20.015Z,77.56
2024-03-03T07:00:49.526Z,77.09
2024-03-03T07:03:40.328Z,75.74
2024-03-03T07:06:11.230Z,76.13
2024-03-03T07:08:40.839Z,75.34
2024-03-03T07:11:09.592Z,73.51
2024-03-03T07:13:39.011Z,72.30
2024-03-03T07:16:09.104Z,70.32
2024-03-03T07:18:37.955Z,68.44
2024-03-03T07:21:07.287Z,66.56
2024-03-03T07:23:42.573Z,63.85
2024-03-03T07:26:12.621Z,64.79
2024-03-03T07:28:42.601Z,63.73
2024-03-03T07:31:12.259Z,63.72
2024-03-03T07:33:41.373Z,60.56
2024-03-03T07:36:10.692Z,59.78
2024-03-03T07:38:41.341Z,59.63
2024-03-03T07:41:13.003Z,58.33
2024-03-03T07:43:41.916Z,59.16
2024-03-03T07:46:10.289Z,58.22
2024-03-03T07:48:39.164Z,58.84
2024-03-03T07:51:08.449Z,58.53
2024-03-03T07:53:37.448Z,58.13
2024-03-03T07:56:10.498Z,57.02
2024-03-03T07:58:39.008Z,56.69
2024-03-03T08:01:08.217Z,57.53
2024-03-03T08:03:38.624Z,55.67
2024-03-03T08:06:06.979Z,53.20
2024-03-03T08:08:35.330Z,57.01
2024-03-03T08:11:04.172Z,55.71
2024-03-03T08:13:37.318Z,51.19
2024-03-03T08:16:11.247Z,49.39
2024-03-03T08:18:43.120Z,56.21
2024-03-03T08:21:14.872Z,54.05
2024-03-03T08:23:43.269Z,50.11
2024-03-03T08:26:12.685Z,50.33
2024-03-03T08:28:42.443Z,50.17
2024-03-03T08:31:11.008Z,47.17
2024-03-03T08:33:39.831Z,45.30
2024-03-03T08:36:09.613Z,46.57
2024-03-03T08:38:40.903Z,48.87
2024-03-03T08:41:11.851Z,49.31
2024-03-03T08:43:40.589Z,50.84
2024-03-03T08:46:11.036Z,46.13
2024-03-03T08:48:40.335Z,48.62
2024-03-03T08:51:09.764Z,44.06
2024-03-03T08:53:38.011Z,42.84
2024-03-03T08:56:07.354Z,48.56
2024-03-03T08:58:36.208Z,50.19
2024-03-03T09:01:04.851Z,51.92
2024-03-03T09:03:36.878Z,49.93
2024-03-03T09:06:05.425Z,48.81
2024-03-03T09:08:35.228Z,49.36
2024-03-03T09:11:06.345Z,52.21
2024-03-03T09:13:36.457Z,48.31
2024-03-03T09:16:07.976Z,47.97
2024-03-03T09:18:39.458Z,44.06
2024-03-03T09:21:13.447Z,47.17
2024-03-03T09:23:43.531Z,49.44
2024-03-03T09:26:11.657Z,48.23
2024-03-03T09:28:41.669Z,47.87
2024-03-03T09:31:22.111Z,47.23
2024-03-03T09:33:55.680Z,44.14
2024-03-03T09:36:26.617Z,48.04
2024-03-03T09:38:57.477Z,46.98
2024-03-03T10:50:08.912Z,38.00
2024-03-03T10:53:05.742Z,38.38
2024-03-03T10:55:45.807Z,34.66
2024-03-03T10:58:29.730Z,38.27
2024-03-03T11:01:34.217Z,41.06
2024-03-03T11:04:32.513Z,42.55
2024-03-03T11:07:26.446Z,41.57
2024-03-03T11:10:22.086Z,34.49
2024-03-03T11:13:19.011Z,37.89
2024-03-03T11:22:01.274Z,37.90
2024-03-03T11:25:10.376Z,36.60
2024-03-03T11:27:47.260Z,37.84
2024-03-03T11:30:32.431Z,38.83
2024-03-03T11:33:13.846Z,35.37
2024-03-03T11:35:54.538Z,37.33
2024-03-03T11:38:28.521Z,34.58
2024-03-03T11:41:05.912Z,34.36
2024-03-03T11:44:05.217Z,33.61
2024-03-03T11:46:49.854Z,39.88
2024-03-03T11:49:28.351Z,39.65
2024-03-03T11:52:03.292Z,37.26
2024-03-03T11:54:46.526Z,34.24
2024-03-03T11:57:29.501Z,37.30
2024-03-03T12:03:30.532Z,36.08
2024-03-03T12:06:33.646Z,36.16
2024-03-03T12:09:40.744Z,33.72
2024-03-03T12:12:15.972Z,37.43
2024-03-03T12:15:09.567Z,35.71
2024-03-03T12:21:42.558Z,32.79
2024-03-03T12:24:32.938Z,35.70
2024-03-03T12:27:15.677Z,31.46
2024-03-03T12:30:52.156Z,37.42
2024-03-03T12:33:41.759Z,34.89
2024-03-03T12:39:00.800Z,34.29
2024-03-03T12:42:17.931Z,35.92
2024-03-03T12:44:46.818Z,34.80
2024-03-03T12:47:35.995Z,36.05
2024-03-03T12:50:26.471Z,35.97
2024-03-03T12:53:15.757Z,32.25
2024-03-03T12:56:18.285Z,31.40
2024-03-03T12:58:59.307Z,35.96
2024-03-03T13:01:32.972Z,35.38
2024-03-03T13:04:02.437Z,37.05
2024-03-03T13:06:52.965Z,36.88
2024-03-03T13:09:33.291Z,38.16
2024-03-03T13:15:35.414Z,35.76
2024-03-03T13:21:33.764Z,35.94
2024-03-03T13:24:27.200Z,37.91
2024-03-03T13:27:21.728Z,38.41
2024-03-03T13:29:58.700Z,38.99
2024-03-03T13:32:53.890Z,40.07
2024-03-03T13:36:04.283Z,38.60
2024-03-03T13:38:52.210Z,39.66
2024-03-03T13:41:29.533Z,39.56
2024-03-03T13:44:05.300Z,38.23
2024-03-03T13:46:41.781Z,39.40
2024-03-03T13:49:26.583Z,40.06
2024-03-03T13:55:04.885Z,38.82
2024-03-03T14:00:35.107Z,39.80
2024-03-03T14:03:16.498Z,40.13
2024-03-03T14:06:36.255Z,38.28
2024-03-03T14:09:07.494Z,38.68
2024-03-03T14:11:45.030Z,40.29
2024-03-03T14:14:51.703Z,40.17
2024-03-03T14:17:26.009Z,39.24
2024-03-03T14:20:13.284Z,37.35
2024-03-03T14:22:51.406Z,37.45
2024-03-03T14:25:30.399Z,38.70
2024-03-03T14:28:23.073Z,36.56
2024-03-03T14:30:56.370Z,38.69
2024-03-03T14:33:26.024Z,36.04
2024-03-03T14:38:55.871Z,35.92
2024-03-03T14:41:30.516Z,38.72
2024-03-03T14:44:11.364Z,35.54
2024-03-03T14:46:48.236Z,35.90
2024-03-03T14:49:16.696Z,35.42
2024-03-03T14:51:57.049Z,35.17
2024-03-03T14:54:25.266Z,35.45
2024-03-03T14:56:59.822Z,37.24
2024-03-03T14:59:32.939Z,38.67
2024-03-03T15:02:02.816Z,39.62
2024-03-03T15:04:34.325Z,39.51
2024-03-03T15:07:03.956Z,40.17
2024-03-03T15:09:34.267Z,40.35
2024-03-03T15:12:04.501Z,40.74
2024-03-03T15:14:38.432Z,40.84
2024-03-03T15:17:18.962Z,40.65
2024-03-03T15:19:47.079Z,40.96
2024-03-03T15:22:18.034Z,40.45
2024-03-03T15:24:49.661Z,40.37
2024-03-03T15:27:18.063Z,40.78
2024-03-03T15:29:49.010Z,40.80
2024-03-03T15:32:21.434Z,40.60
2024-03-03T15:34:57.225Z,40.91
2024-03-03T15:37:30.769Z,41.29
2024-03-03T15:39:59.462Z,41.19
2024-03-03T15:42:36.282Z,42.56
2024-03-03T15:45:11.704Z,42.13
2024-03-03T15:47:45.500Z,41.50
2024-03-03T15:50:16.859Z,42.21
2024-03-03T15:52:45.725Z,42.13
2024-03-03T15:55:21.622Z,42.13
2024-03-03T15:57:53.358Z,41.67
2024-03-03T16:00:24.411Z,42.07
2024-03-03T16:02:55.558Z,41.76
2024-03-03T16:05:26.270Z,42.24
2024-03-03T16:07:56.282Z,42.23
2024-03-03T16:10:24.628Z,42.58
2024-03-03T16:12:56.218Z,43.01
2024-03-03T16:15:25.572Z,43.24
2024-03-03T16:17:59.069Z,43.34
2024-03-03T16:20:28.064Z,44.34
2024-03-03T16:23:05.147Z,43.76
2024-03-03T16:25:39.579Z,44.20
2024-03-03T16:28:15.981Z,44.53
2024-03-03T16:30:47.998Z,44.33
2024-03-03T16:33:20.190Z,44.71
2024-03-03T16:35:49.448Z,45.01
2024-03-03T16:38:46.043Z,45.04
2024-03-03T16:41:16.491Z,45.10
2024-03-03T16:43:47.733Z,45.30
2024-03-03T16:46:19.178Z,45.79
2024-03-03T16:48:50.432Z,46.60
2024-03-03T16:54:08.031Z,46.38
2024-03-03T16:56:39.437Z,46.49
2024-03-03T17:08:18.410Z,49.11
2024-03-03T17:29:37.236Z,52.22
2024-03-03T17:32:08.343Z,52.36
2024-03-03T17:37:31.395Z,55.14
2024-03-03T17:43:30.460Z,55.16
2024-03-03T17:46:05.295Z,55.49
2024-03-03T17:48:47.984Z,57.23
2024-03-03T17:51:35.771Z,56.56
2024-03-03T17:54:22.369Z,56.72
2024-03-03T17:56:55.772Z,56.61
2024-03-03T17:59:44.634Z,56.08
2024-03-03T18:05:06.132Z,58.15
2024-03-03T18:07:37.676Z,58.84
2024-03-03T18:24:52.746Z,61.10
2024-03-03T18:30:32.630Z,60.75
2024-03-03T18:36:02.016Z,61.57
2024-03-03T18:38:31.145Z,62.29
2024-03-03T18:41:01.368Z,61.24
2024-03-03T18:43:54.966Z,61.20
2024-03-03T18:46:44.425Z,62.39
2024-03-03T18:49:14.502Z,63.03
2024-03-03T18:51:46.557Z,62.43
2024-03-03T18:54:17.545Z,62.43
2024-03-03T18:56:54.801Z,61.78
2024-03-03T18:59:27.973Z,63.20
2024-03-03T19:02:03.590Z,63.58
2024-03-03T19:04:32.431Z,63.21
2024-03-03T19:09:46.431Z,64.44
2024-03-03T19:12:19.378Z,63.93
2024-03-03T19:14:51.722Z,64.97
2024-03-03T19:17:23.583Z,64.63
2024-03-03T19:20:16.178Z,64.42
2024-03-03T19:22:46.205Z,64.40
2024-03-03T19:25:27.554Z,64.44
2024-03-03T19:28:05.261Z,64.77
2024-03-03T19:30:45.902Z,64.36
2024-03-03T19:33:18.201Z,64.42
2024-03-03T19:35:47.709Z,64.37
2024-03-03T19:38:19.026Z,63.93
2024-03-03T19:40:59.786Z,64.10
2024-03-03T19:43:32.798Z,63.73
2024-03-03T19:46:13.450Z,64.28
2024-03-03T19:48:46.186Z,64.27
2024-03-03T19:51:23.410Z,64.66
2024-03-03T19:53:56.814Z,63.87
2024-03-03T19:56:26.686Z,62.92
2024-03-03T19:59:00.225Z,63.08
2024-03-03T20:01:28.863Z,63.12
2024-03-03T20:04:05.163Z,63.05
2024-03-03T20:06:34.168Z,64.49
2024-03-03T20:09:02.580Z,64.36
2024-03-03T20:11:34.060Z,64.60
2024-03-03T20:14:13.728Z,64.17
2024-03-03T20:16:44.057Z,64.86
2024-03-03T20:19:16.210Z,64.67
2024-03-03T20:21:47.209Z,65.31
2024-03-03T20:24:25.499Z,64.22
2024-03-03T20:26:56.600Z,64.74
2024-03-03T20:29:28.113Z,64.37
2024-03-03T20:31:59.973Z,64.49
2024-03-03T20:34:35.120Z,65.22
2024-03-03T20:37:06.119Z,64.03
2024-03-03T20:39:37.290Z,64.56
2024-03-03T20:42:07.743Z,64.51
2024-03-03T20:44:36.279Z,64.63
2024-03-03T20:47:05.089Z,64.57
2024-03-03T20:49:40.674Z,64.08
2024-03-03T20:52:09.371Z,62.88
2024-03-03T20:54:37.680Z,63.59
2024-03-03T20:57:12.098Z,64.83
2024-03-03T20:59:42.013Z,64.19
2024-03-03T21:02:13.348Z,64.75
2024-03-03T21:05:10.456Z,65.16
2024-03-03T21:07:39.375Z,65.15
2024-03-03T21:10:11.514Z,64.66
2024-03-03T21:12:43.144Z,65.22
2024-03-03T21:15:12.975Z,64.42
2024-03-03T21:17:42.984Z,65.87
2024-03-03T21:20:14.862Z,65.40
2024-03-03T21:22:45.026Z,66.21
2024-03-03T21:25:16.220Z,66.06
2024-03-03T21:27:45.452Z,66.70
2024-03-03T21:30:16.508Z,67.25
2024-03-03T21:32:45.972Z,67.37
2024-03-03T21:35:16.038Z,67.48
2024-03-03T21:37:45.240Z,68.17
2024-03-03T21:40:15.527Z,68.25
2024-03-03T21:42:43.869Z,67.99
2024-03-03T21:45:15.789Z,68.57
2024-03-03T21:47:44.271Z,68.75
2024-03-03T21:50:13.296Z,68.97
2024-03-03T21:52:44.565Z,68.98
2024-03-03T21:55:14.317Z,70.00
2024-03-03T21:57:43.900Z,68.78
2024-03-03T22:00:16.514Z,69.75
2024-03-03T22:02:47.366Z,70.46
2024-03-03T22:05:15.679Z,71.75
2024-03-03T22:07:47.523Z,70.56
2024-03-03T22:10:15.847Z,70.71
2024-03-03T22:12:49.616Z,71.85
2024-03-03T22:15:19.224Z,72.34
2024-03-03T22:17:49.051Z,71.14
2024-03-03T22:20:17.468Z,71.56
2024-03-03T22:22:48.073Z,71.88
2024-03-03T22:25:16.814Z,71.97
2024-03-03T22:27:45.160Z,72.66
2024-03-03T22:30:16.906Z,73.04
2024-03-03T22:32:45.318Z,73.57
2024-03-03T22:35:15.300Z,73.24
2024-03-03T22:37:43.580Z,72.53
2024-03-03T22:40:15.640Z,73.49
2024-03-03T22:42:44.201Z,72.68
2024-03-03T22:45:15.403Z,73.41
2024-03-03T22:47:47.534Z,72.83
2024-03-03T22:50:18.190Z,72.88
2024-03-03T22:52:46.831Z,72.88
2024-03-03T22:55:19.471Z,73.70
2024-03-03T22:57:48.217Z,74.24
2024-03-03T23:00:18.178Z,74.16
2024-03-03T23:02:47.211Z,74.79
2024-03-03T23:05:15.817Z,74.49
2024-03-03T23:07:46.169Z,72.98
2024-03-03T23:10:17.253Z,73.77
2024-03-03T23:12:48.916Z,73.71
2024-03-03T23:15:20.258Z,73.96
2024-03-03T23:17:48.232Z,73.76
2024-03-03T23:20:16.640Z,73.84
2024-03-03T23:22:44.902Z,73.93
2024-03-03T23:25:13.963Z,74.47
2024-03-03T23:27:42.335Z,74.73
2024-03-03T23:30:15.240Z,75.37
2024-03-03T23:32:46.489Z,74.92
2024-03-03T23:35:16.370Z,74.61
2024-03-03T23:37:46.383Z,74.32
2024-03-03T23:40:17.847Z,74.87
2024-03-03T23:42:50.716Z,74.31
2024-03-03T23:45:24.918Z,73.83
2024-03-03T23:47:54.551Z,74.75
2024-03-03T23:50:22.934Z,74.05
2024-03-03T23:52:52.390Z,74.65
2024-03-03T23:55:22.186Z,73.24
2024-03-03T23:57:51.208Z,74.04
